Baltimore, MD (21215)

10:16 AM EST on January 21, 2017 (GMT -0500)
Mt. Washington | | Change Station
Active Advisory: Small Craft Advisory

Elev 392 ft 39.37 °N, 76.66 °W | Updated 3 seconds ago

Fog
Fog
45.9 °F
Feels Like 46 °F
N
0.0
Wind Variable Wind from ENE
Gusts 0.0 mph

Today
High -- | Low -- °F
--% Chance of Precip.
Yesterday
High -- | Low -- °F
Precip. -- in
Pressure 29.92 in
Visibility 0.8 miles
Clouds Overcast 200 ft
Windchill 46 °F
Dew Point 45 °F
Humidity 97%
Rainfall 0.00 in
Snow Depth Not available.
7:21 AM 5:14 PM
Waning Crescent, 34% visible
METAR KBWI 211454Z 21006KT 3/4SM R10/6000VP6000FT BR OVC002 08/08 A2992 RMK AO2 SLP131 60000 T00780078 53004
Pressure 29.92 in
Visibility 0.8 miles
Clouds Overcast 200 ft
Windchill 46 °F
Dew Point 45 °F
Humidity 97%
Rainfall 0.00 in
Snow Depth Not available.
7:21 AM 5:14 PM
Waning Crescent, 34% visible
METAR KBWI 211454Z 21006KT 3/4SM R10/6000VP6000FT BR OVC002 08/08 A2992 RMK AO2 SLP131 60000 T00780078 53004

Get Your Daily Forecast Email!

Thanks for signing up!

Be on the lookout for a verification email in your inbox.

You'll start receiving the daily forecast at 8 AM.

×

10-Day Weather Forecast

Almanac

Astronomy

Jan. 21, 2017 Rise Set
Actual Time
Civil Twilight
Nautical Twilight
Astronomical Twilight
Moon
Length of Visible Light
Length of Day
Tomorrow will be .
, % of the Moon is Illuminated

Today's Extremes

State Highs State Lows

Community

WunderPhotos

Upload Photos

1,962,540 photos uploaded!

WunderBlog® & News

Nearby

Air Quality

  Air Quality AQ Index Pollutant
Not available.

Snow Depth

Station Depth Elevation

Earthquake Activity

City Distance Mag. Time & Date
Minimum magnitude displayed is 2.5.

Coastal Water Temperatures

Place Temperature

Stations

Nearby Weather Stations

Station Location Temp. Windchill Dew Point Humidity Wind Precip. Elev Updated Type
                   

Watches & Warnings

Small Craft Advisory
Issued: 9:46 AM EST Jan. 21, 2017 – National Weather Service

... Small Craft Advisory remains in effect from noon to 6 PM EST
Sunday...

* winds... 18 to 33 knots within the Small Craft Advisory.

Precautionary/preparedness actions...

A Small Craft Advisory means winds of 18 to 33 knots are imminent
or occurring. Boaters operating smaller vessels should avoid
navigating in these conditions.